Time;durP1;ratioP1;P1;durP2;ratioP2;P2;SDS_P1;SDS_P2;PMS_P1;PMS_P2;Temp;Humidity;BMP_temperature;BMP_pressure;BME280_temperature;BME280_humidity;BME280_pressure;Samples;Min_cycle;Max_cycle;Signal;HPM_P1;HPM_P2
2023/04/20 00:01:30;;;;;;;;;8.50;8.00;;;;;;;;117958;1177;24828;-61
2023/04/20 00:03:59;;;;;;;;;8.75;6.75;;;;;;;;117859;1181;25469;-60
2023/04/20 00:06:28;;;;;;;;;6.50;6.00;;;;;;;;118014;1190;25647;-61
2023/04/20 00:08:56;;;;;;;;;11.00;7.00;;;;;;;;117956;1177;25414;-62
2023/04/20 00:11:26;;;;;;;;;6.00;6.00;;;;;;;;117905;1184;25105;-61
2023/04/20 00:13:54;;;;;;;;;9.00;8.00;;;;;;;;117962;1178;25313;-61
2023/04/20 00:16:23;;;;;;;;;9.00;7.00;;;;;;;;117956;1187;25553;-62
2023/04/20 00:18:51;;;;;;;;;10.00;9.00;;;;;;;;117922;1190;25013;-62
2023/04/20 00:21:22;;;;;;;;;9.50;8.25;;;;;;;;117839;1178;25510;-65
2023/04/20 00:23:51;;;;;;;;;6.67;6.67;;;;;;;;117796;1183;25264;-65
2023/04/20 00:26:20;;;;;;;;;7.50;7.25;;;;;;;;117872;1177;25303;-67
2023/04/20 00:28:50;;;;;;;;;7.00;6.67;;;;;;;;117933;1183;25420;-67
2023/04/20 00:31:19;;;;;;;;;10.25;7.75;;;;;;;;117860;1177;25149;-62
2023/04/20 00:33:48;;;;;;;;;5.75;4.75;;;;;;;;117827;1179;25686;-64
2023/04/20 00:36:16;;;;;;;;;9.00;6.67;;;;;;;;117785;1180;24906;-64
2023/04/20 00:38:44;;;;;;;;;8.75;6.50;;;;;;;;117905;1179;25008;-64
2023/04/20 00:41:13;;;;;;;;;6.00;5.67;;;;;;;;117875;1190;25604;-64
2023/04/20 00:43:52;;;;;;;;;6.00;6.00;;;;;;;;117918;1177;25647;-64
2023/04/20 00:46:20;;;;;;;;;8.50;7.75;;;;;;;;117939;1177;26139;-64
2023/04/20 00:48:53;;;;;;;;;8.00;6.00;;;;;;;;117908;1187;25487;-64
2023/04/20 00:51:21;;;;;;;;;8.00;6.00;;;;;;;;117860;1190;26475;-63
2023/04/20 00:53:50;;;;;;;;;9.00;5.33;;;;;;;;117889;1178;25659;-64
2023/04/20 00:56:18;;;;;;;;;8.33;6.00;;;;;;;;118451;1179;25438;-64
2023/04/20 00:58:47;;;;;;;;;9.25;6.00;;;;;;;;117836;1190;26211;-63
2023/04/20 01:01:18;;;;;;;;;5.67;5.33;;;;;;;;117808;1190;25678;-64
2023/04/20 01:03:47;;;;;;;;;9.75;6.00;;;;;;;;117821;1190;25830;-64
2023/04/20 01:06:16;;;;;;;;;8.25;7.75;;;;;;;;117868;1177;25801;-64
2023/04/20 01:08:49;;;;;;;;;6.00;6.00;;;;;;;;117849;1178;25641;-64
2023/04/20 01:11:17;;;;;;;;;6.67;6.67;;;;;;;;117910;1177;25515;-63
2023/04/20 01:13:46;;;;;;;;;7.00;6.50;;;;;;;;117840;1180;24916;-63
2023/04/20 01:16:14;;;;;;;;;7.00;7.00;;;;;;;;117905;1190;25316;-64
2023/04/20 01:18:46;;;;;;;;;9.33;6.67;;;;;;;;117878;1177;24779;-63
2023/04/20 01:21:17;;;;;;;;;6.00;6.00;;;;;;;;117848;1180;24700;-64
2023/04/20 01:23:45;;;;;;;;;6.33;6.33;;;;;;;;117890;1179;25179;-64
2023/04/20 01:26:16;;;;;;;;;6.50;5.00;;;;;;;;117916;1182;25732;-64
2023/04/20 01:28:45;;;;;;;;;8.00;5.67;;;;;;;;117888;1190;25537;-63
2023/04/20 01:31:13;;;;;;;;;9.00;7.00;;;;;;;;117805;1183;25299;-64
2023/04/20 01:33:42;;;;;;;;;7.00;6.00;;;;;;;;117778;1180;25674;-64
2023/04/20 01:36:11;;;;;;;;;5.75;5.25;;;;;;;;117810;1177;25842;-63
2023/04/20 01:38:40;;;;;;;;;7.67;7.00;;;;;;;;117917;1180;25663;-63
2023/04/20 01:41:09;;;;;;;;;6.50;5.75;;;;;;;;117924;1178;25534;-63
2023/04/20 01:43:38;;;;;;;;;6.50;3.00;;;;;;;;117803;1177;25310;-63
2023/04/20 01:46:06;;;;;;;;;6.50;6.00;;;;;;;;117864;1181;24770;-63
2023/04/20 01:48:35;;;;;;;;;6.67;6.67;;;;;;;;117784;1184;25111;-63
2023/04/20 01:51:03;;;;;;;;;9.00;5.00;;;;;;;;117789;1182;25074;-63
2023/04/20 01:53:32;;;;;;;;;8.67;5.33;;;;;;;;117790;1177;25246;-63
2023/04/20 01:56:00;;;;;;;;;7.75;5.75;;;;;;;;117765;1177;25204;-64
2023/04/20 01:58:29;;;;;;;;;7.00;7.00;;;;;;;;117806;1178;25053;-63
2023/04/20 02:00:57;;;;;;;;;6.33;5.00;;;;;;;;117781;1177;25426;-63
2023/04/20 02:03:26;;;;;;;;;5.67;4.33;;;;;;;;117908;1177;25478;-63
2023/04/20 02:05:55;;;;;;;;;6.00;5.00;;;;;;;;117920;1190;25453;-64
2023/04/20 02:08:23;;;;;;;;;6.00;6.00;;;;;;;;117905;1187;24825;-64
2023/04/20 02:10:52;;;;;;;;;6.33;4.67;;;;;;;;117840;1190;25626;-63
2023/04/20 02:13:20;;;;;;;;;6.00;5.00;;;;;;;;117841;1177;25347;-63
2023/04/20 02:15:49;;;;;;;;;8.00;6.50;;;;;;;;117858;1177;26020;-65
2023/04/20 02:18:17;;;;;;;;;7.00;5.00;;;;;;;;117850;1190;25413;-67
2023/04/20 02:20:46;;;;;;;;;3.00;3.00;;;;;;;;117850;1178;25634;-66
2023/04/20 02:23:14;;;;;;;;;6.75;6.50;;;;;;;;117920;1179;24847;-64
2023/04/20 02:25:43;;;;;;;;;7.67;5.33;;;;;;;;117901;1190;25258;-65
2023/04/20 02:28:11;;;;;;;;;9.25;7.75;;;;;;;;117786;1177;24902;-69
2023/04/20 02:30:39;;;;;;;;;5.33;5.00;;;;;;;;117853;1178;25453;-72
2023/04/20 02:33:08;;;;;;;;;7.33;6.00;;;;;;;;117861;1180;25425;-69
2023/04/20 02:35:36;;;;;;;;;6.25;5.00;;;;;;;;117848;1183;25197;-66
2023/04/20 02:38:05;;;;;;;;;7.67;6.33;;;;;;;;117866;1177;24859;-63
2023/04/20 02:40:33;;;;;;;;;7.00;5.33;;;;;;;;117888;1190;25051;-61
2023/04/20 02:43:02;;;;;;;;;7.33;5.67;;;;;;;;117830;1183;25377;-62
2023/04/20 02:45:31;;;;;;;;;5.50;5.00;;;;;;;;117858;1178;25270;-62
2023/04/20 02:48:00;;;;;;;;;5.75;4.50;;;;;;;;117935;1181;25313;-64
2023/04/20 02:50:29;;;;;;;;;7.00;7.00;;;;;;;;117919;1177;25079;-65
2023/04/20 02:52:57;;;;;;;;;5.00;4.00;;;;;;;;117804;1178;24677;-64
2023/04/20 02:55:26;;;;;;;;;6.00;5.50;;;;;;;;117806;1180;25491;-64
2023/04/20 02:57:54;;;;;;;;;6.00;5.25;;;;;;;;117831;1191;25447;-64
2023/04/20 03:00:23;;;;;;;;;6.33;4.33;;;;;;;;117743;1183;26116;-65
2023/04/20 03:02:51;;;;;;;;;6.25;6.25;;;;;;;;117930;1177;25189;-65
2023/04/20 03:05:20;;;;;;;;;5.33;5.33;;;;;;;;117912;1177;24976;-65
2023/04/20 03:07:48;;;;;;;;;7.00;6.00;;;;;;;;117884;1177;24856;-64
2023/04/20 03:10:17;;;;;;;;;7.33;5.67;;;;;;;;117921;1180;25488;-63
2023/04/20 03:12:45;;;;;;;;;9.00;6.50;;;;;;;;117820;1177;25292;-63
2023/04/20 03:15:15;;;;;;;;;7.50;5.50;;;;;;;;117792;1177;25475;-64
2023/04/20 03:17:44;;;;;;;;;5.67;5.67;;;;;;;;117811;1177;26244;-63
2023/04/20 03:20:13;;;;;;;;;8.33;6.67;;;;;;;;117900;1190;24724;-66
2023/04/20 03:22:41;;;;;;;;;6.00;5.00;;;;;;;;117915;1182;25459;-65
2023/04/20 03:25:10;;;;;;;;;1.00;0.00;;;;;;;;117836;1180;25057;-65
2023/04/20 03:27:39;;;;;;;;;7.00;6.00;;;;;;;;117829;1181;25051;-64
2023/04/20 03:30:08;;;;;;;;;7.50;7.50;;;;;;;;117779;1181;25245;-65
2023/04/20 03:32:37;;;;;;;;;9.50;7.50;;;;;;;;117800;1177;24923;-65
2023/04/20 03:35:07;;;;;;;;;7.33;7.00;;;;;;;;117816;1177;25603;-65
2023/04/20 03:37:36;;;;;;;;;7.67;7.00;;;;;;;;117897;1183;24764;-63
2023/04/20 03:40:07;;;;;;;;;5.00;5.00;;;;;;;;117935;1181;24881;-64
2023/04/20 03:42:36;;;;;;;;;5.50;5.00;;;;;;;;117914;1177;25162;-64
2023/04/20 03:45:05;;;;;;;;;5.00;5.00;;;;;;;;117831;1178;25325;-64
2023/04/20 03:47:33;;;;;;;;;8.33;6.33;;;;;;;;117911;1184;24732;-64
2023/04/20 03:50:03;;;;;;;;;7.00;5.67;;;;;;;;117839;1178;25435;-64
2023/04/20 03:52:31;;;;;;;;;7.25;7.00;;;;;;;;117850;1180;24939;-64
2023/04/20 03:54:59;;;;;;;;;5.33;5.33;;;;;;;;117874;1180;25148;-65
2023/04/20 03:57:28;;;;;;;;;4.50;3.00;;;;;;;;117887;1184;25503;-64
2023/04/20 03:59:56;;;;;;;;;7.00;7.00;;;;;;;;117795;1191;24717;-64
2023/04/20 04:02:24;;;;;;;;;7.33;7.00;;;;;;;;117824;1188;25137;-64
2023/04/20 04:04:53;;;;;;;;;6.00;6.00;;;;;;;;117882;1188;25177;-64
2023/04/20 04:07:22;;;;;;;;;10.67;7.00;;;;;;;;117833;1181;24965;-65
2023/04/20 04:09:50;;;;;;;;;6.00;5.50;;;;;;;;117903;1190;24757;-65
2023/04/20 04:12:18;;;;;;;;;5.50;5.50;;;;;;;;117897;1179;25459;-65
2023/04/20 04:14:47;;;;;;;;;11.00;8.00;;;;;;;;117919;1177;26168;-65
2023/04/20 04:17:15;;;;;;;;;5.67;5.67;;;;;;;;117918;1177;24889;-65
2023/04/20 04:19:44;;;;;;;;;5.00;5.00;;;;;;;;117944;1188;24964;-65
2023/04/20 04:22:12;;;;;;;;;7.75;6.75;;;;;;;;117914;1177;25539;-65
2023/04/20 04:24:41;;;;;;;;;7.00;6.00;;;;;;;;117900;1178;25120;-65
2023/04/20 04:27:12;;;;;;;;;7.33;7.33;;;;;;;;117839;1190;25403;-65
2023/04/20 04:29:41;;;;;;;;;7.00;7.00;;;;;;;;117912;1190;25264;-65
2023/04/20 04:32:10;;;;;;;;;6.00;5.50;;;;;;;;117911;1183;24785;-63
2023/04/20 04:34:39;;;;;;;;;5.67;4.33;;;;;;;;117925;1177;25164;-66
2023/04/20 04:37:07;;;;;;;;;10.33;7.00;;;;;;;;117945;1190;25186;-65
2023/04/20 04:39:36;;;;;;;;;5.00;5.00;;;;;;;;117926;1177;25303;-65
2023/04/20 04:42:04;;;;;;;;;7.33;6.00;;;;;;;;117914;1177;24731;-65
2023/04/20 04:44:33;;;;;;;;;9.00;7.00;;;;;;;;117915;1178;24770;-65
2023/04/20 04:47:02;;;;;;;;;5.00;5.00;;;;;;;;117866;1187;25547;-65
2023/04/20 04:49:34;;;;;;;;;9.00;7.33;;;;;;;;117889;1190;26305;-64
2023/04/20 04:52:03;;;;;;;;;10.67;8.00;;;;;;;;117903;1183;24742;-64
2023/04/20 04:54:31;;;;;;;;;8.67;7.00;;;;;;;;117955;1177;24673;-64
2023/04/20 04:57:00;;;;;;;;;10.67;10.67;;;;;;;;117909;1184;25553;-64
2023/04/20 04:59:28;;;;;;;;;7.00;6.25;;;;;;;;117837;1190;25213;-64
2023/04/20 05:02:00;;;;;;;;;10.00;7.67;;;;;;;;117874;1186;25737;-65
2023/04/20 05:04:28;;;;;;;;;10.33;8.00;;;;;;;;117912;1190;25112;-65
2023/04/20 05:06:57;;;;;;;;;6.00;6.00;;;;;;;;117845;1179;25540;-64
2023/04/20 05:09:32;;;;;;;;;9.00;8.67;;;;;;;;117940;1191;25407;-65
2023/04/20 05:12:02;;;;;;;;;8.33;7.33;;;;;;;;117904;1181;25596;-65
2023/04/20 05:14:31;;;;;;;;;9.00;8.00;;;;;;;;117820;1191;25517;-65
2023/04/20 05:17:00;;;;;;;;;9.00;6.00;;;;;;;;117929;1190;25419;-63
2023/04/20 05:19:29;;;;;;;;;3.00;2.25;;;;;;;;117913;1177;24725;-65
2023/04/20 05:21:57;;;;;;;;;7.25;6.75;;;;;;;;117905;1181;24780;-65
2023/04/20 05:24:26;;;;;;;;;8.00;7.00;;;;;;;;117930;1183;24698;-65
2023/04/20 05:26:54;;;;;;;;;8.00;8.00;;;;;;;;117877;1190;25356;-63
2023/04/20 05:29:23;;;;;;;;;8.00;8.00;;;;;;;;117915;1178;25582;-64
2023/04/20 05:31:51;;;;;;;;;6.50;6.00;;;;;;;;117946;1177;24817;-63
2023/04/20 05:34:20;;;;;;;;;7.00;5.50;;;;;;;;117936;1187;25367;-63
2023/04/20 05:36:48;;;;;;;;;5.33;5.33;;;;;;;;117911;1180;24952;-63
2023/04/20 05:39:16;;;;;;;;;7.50;7.00;;;;;;;;117953;1180;24887;-64
2023/04/20 05:41:46;;;;;;;;;6.00;5.00;;;;;;;;117944;1180;24961;-67
2023/04/20 05:44:14;;;;;;;;;11.33;8.33;;;;;;;;117908;1186;25031;-64
2023/04/20 05:46:43;;;;;;;;;15.00;12.00;;;;;;;;117900;1184;25591;-64
2023/04/20 05:49:11;;;;;;;;;11.33;9.00;;;;;;;;117801;1177;25100;-65
2023/04/20 05:51:40;;;;;;;;;7.67;7.00;;;;;;;;117699;1180;24963;-65
2023/04/20 05:54:09;;;;;;;;;7.00;7.00;;;;;;;;117684;1179;25290;-64
2023/04/20 05:56:37;;;;;;;;;9.00;7.67;;;;;;;;117792;1191;25453;-66
2023/04/20 05:59:06;;;;;;;;;10.00;7.00;;;;;;;;117895;1190;25215;-65
2023/04/20 06:01:34;;;;;;;;;7.00;7.00;;;;;;;;117953;1182;24895;-65
2023/04/20 06:04:02;;;;;;;;;10.00;9.00;;;;;;;;117974;1177;24982;-64
2023/04/20 06:06:31;;;;;;;;;11.50;8.00;;;;;;;;117985;1176;25326;-61
2023/04/20 06:09:00;;;;;;;;;7.75;5.25;;;;;;;;117981;1190;24768;-61
2023/04/20 06:11:28;;;;;;;;;9.00;9.00;;;;;;;;118002;1190;25456;-62
2023/04/20 06:13:57;;;;;;;;;9.25;8.00;;;;;;;;117946;1178;25145;-62
2023/04/20 06:16:25;;;;;;;;;11.25;11.25;;;;;;;;117934;1177;25103;-63
2023/04/20 06:18:54;;;;;;;;;12.00;9.67;;;;;;;;117964;1182;24701;-63
2023/04/20 06:21:23;;;;;;;;;10.00;10.00;;;;;;;;117949;1176;25372;-63
2023/04/20 06:23:51;;;;;;;;;17.25;11.75;;;;;;;;117914;1179;24944;-63
2023/04/20 06:26:20;;;;;;;;;9.00;6.50;;;;;;;;117948;1177;25596;-62
2023/04/20 06:28:51;;;;;;;;;7.00;6.00;;;;;;;;117937;1190;24898;-64
2023/04/20 06:31:20;;;;;;;;;9.00;8.00;;;;;;;;117914;1177;25599;-64
2023/04/20 06:33:48;;;;;;;;;9.75;8.50;;;;;;;;117925;1177;24717;-66
2023/04/20 06:36:17;;;;;;;;;7.00;7.00;;;;;;;;117797;1190;25242;-64
2023/04/20 06:38:45;;;;;;;;;6.33;5.00;;;;;;;;117922;1178;25549;-71
2023/04/20 06:41:15;;;;;;;;;7.00;7.00;;;;;;;;117917;1177;25998;-70
2023/04/20 06:43:44;;;;;;;;;7.00;7.00;;;;;;;;117879;1180;24806;-70
2023/04/20 06:46:13;;;;;;;;;6.67;5.00;;;;;;;;117920;1177;25395;-71
2023/04/20 06:48:41;;;;;;;;;7.00;6.00;;;;;;;;117880;1187;25241;-69
2023/04/20 06:51:12;;;;;;;;;7.00;5.50;;;;;;;;117906;1179;24942;-73
2023/04/20 06:53:40;;;;;;;;;6.67;4.00;;;;;;;;117900;1179;25325;-72
2023/04/20 06:56:10;;;;;;;;;4.33;4.33;;;;;;;;117906;1179;25176;-65
2023/04/20 06:58:38;;;;;;;;;9.50;5.25;;;;;;;;117893;1177;24819;-64
2023/04/20 07:01:07;;;;;;;;;8.33;5.33;;;;;;;;117886;1177;24773;-67
2023/04/20 07:03:35;;;;;;;;;7.00;7.00;;;;;;;;117920;1186;25338;-68
2023/04/20 07:06:06;;;;;;;;;10.00;6.33;;;;;;;;117900;1180;26655;-72
2023/04/20 07:08:34;;;;;;;;;9.00;9.00;;;;;;;;118096;1183;24898;-71
2023/04/20 07:11:03;;;;;;;;;6.75;6.50;;;;;;;;118093;1177;24933;-72
2023/04/20 07:13:31;;;;;;;;;9.50;9.00;;;;;;;;118130;1177;26486;-70
2023/04/20 07:16:01;;;;;;;;;9.25;8.00;;;;;;;;118076;1177;24757;-69
2023/04/20 07:18:30;;;;;;;;;5.75;5.75;;;;;;;;118050;1177;25365;-64
2023/04/20 07:21:01;;;;;;;;;10.50;9.00;;;;;;;;117953;1177;25111;-64
2023/04/20 07:23:30;;;;;;;;;5.00;4.00;;;;;;;;117855;1178;24834;-63
2023/04/20 07:25:58;;;;;;;;;7.75;6.00;;;;;;;;117943;1190;24888;-63
2023/04/20 07:28:27;;;;;;;;;9.25;8.00;;;;;;;;118089;1188;25646;-64
2023/04/20 07:30:55;;;;;;;;;7.33;7.33;;;;;;;;118106;1176;25542;-62
2023/04/20 07:33:25;;;;;;;;;11.00;8.50;;;;;;;;118097;1177;24747;-61
2023/04/20 07:35:53;;;;;;;;;7.00;7.00;;;;;;;;117843;1179;25391;-61
2023/04/20 07:38:22;;;;;;;;;8.00;6.25;;;;;;;;118081;1177;24897;-62
2023/04/20 07:40:50;;;;;;;;;6.67;4.33;;;;;;;;118103;1177;25309;-62
2023/04/20 07:43:19;;;;;;;;;9.00;9.00;;;;;;;;118063;1190;25250;-62
2023/04/20 07:45:47;;;;;;;;;9.67;7.67;;;;;;;;117962;1178;25655;-63
2023/04/20 07:48:16;;;;;;;;;8.75;8.75;;;;;;;;118075;1190;25361;-64
2023/04/20 07:50:45;;;;;;;;;7.00;5.00;;;;;;;;117946;1179;25025;-62
2023/04/20 07:53:13;;;;;;;;;8.00;8.00;;;;;;;;118090;1177;24869;-62
2023/04/20 07:55:42;;;;;;;;;7.67;6.00;;;;;;;;117937;1177;25624;-62
2023/04/20 07:58:11;;;;;;;;;8.50;7.00;;;;;;;;117934;1181;24845;-62
2023/04/20 08:00:39;;;;;;;;;10.33;7.33;;;;;;;;118045;1177;25672;-62
2023/04/20 08:03:08;;;;;;;;;9.00;7.33;;;;;;;;118028;1177;25641;-62
2023/04/20 08:05:37;;;;;;;;;8.00;7.33;;;;;;;;117965;1177;25239;-63
2023/04/20 08:08:06;;;;;;;;;9.00;7.00;;;;;;;;117836;1177;24838;-63
2023/04/20 08:10:35;;;;;;;;;7.00;6.50;;;;;;;;117858;1190;25611;-63
2023/04/20 08:13:03;;;;;;;;;5.33;4.67;;;;;;;;117835;1177;25073;-62
2023/04/20 08:15:32;;;;;;;;;10.25;6.50;;;;;;;;117766;1183;25129;-63
2023/04/20 08:18:00;;;;;;;;;10.33;6.33;;;;;;;;117829;1182;25403;-64
2023/04/20 08:20:29;;;;;;;;;6.00;6.00;;;;;;;;117861;1190;25563;-63
2023/04/20 08:22:58;;;;;;;;;6.75;5.00;;;;;;;;117871;1179;25168;-63
2023/04/20 08:25:26;;;;;;;;;10.00;5.67;;;;;;;;117856;1181;25530;-64
2023/04/20 08:27:54;;;;;;;;;8.75;5.00;;;;;;;;117891;1178;24801;-63
2023/04/20 08:30:23;;;;;;;;;6.67;6.67;;;;;;;;117850;1179;25098;-63
2023/04/20 08:32:52;;;;;;;;;7.50;6.75;;;;;;;;117872;1178;25163;-63
2023/04/20 08:35:20;;;;;;;;;6.33;6.33;;;;;;;;117799;1181;26325;-62
2023/04/20 08:37:49;;;;;;;;;8.75;6.25;;;;;;;;117769;1180;25519;-62
2023/04/20 08:40:20;;;;;;;;;7.75;6.50;;;;;;;;117869;1182;25157;-62
2023/04/20 08:42:49;;;;;;;;;9.00;7.25;;;;;;;;117787;1179;26303;-63
2023/04/20 08:45:17;;;;;;;;;5.75;5.75;;;;;;;;118434;1185;24744;-63
2023/04/20 08:47:46;;;;;;;;;7.00;7.00;;;;;;;;117849;1180;25489;-64
2023/04/20 08:50:15;;;;;;;;;5.50;4.75;;;;;;;;117897;1179;25005;-63
2023/04/20 08:52:44;;;;;;;;;4.25;4.25;;;;;;;;117880;1179;24733;-62
2023/04/20 08:55:17;;;;;;;;;5.00;5.00;;;;;;;;117875;1180;25316;-62
2023/04/20 08:57:48;;;;;;;;;7.00;6.00;;;;;;;;117862;1183;24716;-62
2023/04/20 09:00:17;;;;;;;;;6.25;6.00;;;;;;;;117786;1191;25374;-62
2023/04/20 09:02:54;;;;;;;;;5.00;3.67;;;;;;;;117928;1179;24987;-62
2023/04/20 09:05:28;;;;;;;;;4.25;4.25;;;;;;;;117859;1179;24678;-63
2023/04/20 09:08:00;;;;;;;;;4.50;4.00;;;;;;;;117872;1180;24922;-63
2023/04/20 09:10:40;;;;;;;;;6.00;5.75;;;;;;;;117844;1180;25651;-67
2023/04/20 09:13:20;;;;;;;;;5.00;5.00;;;;;;;;117859;1191;25100;-70
2023/04/20 09:15:48;;;;;;;;;5.50;4.00;;;;;;;;117880;1190;25544;-66
2023/04/20 09:18:17;;;;;;;;;4.25;4.25;;;;;;;;117912;1177;24762;-64
2023/04/20 09:20:46;;;;;;;;;3.00;3.00;;;;;;;;117852;1190;26370;-60
2023/04/20 09:23:16;;;;;;;;;4.50;4.50;;;;;;;;117835;1177;24794;-64
2023/04/20 09:25:49;;;;;;;;;4.33;4.33;;;;;;;;117866;1178;25023;-64
2023/04/20 09:28:17;;;;;;;;;4.75;4.75;;;;;;;;117862;1177;25475;-64
2023/04/20 09:30:47;;;;;;;;;5.50;4.00;;;;;;;;117929;1177;25519;-63
2023/04/20 09:33:18;;;;;;;;;5.25;4.75;;;;;;;;117859;1184;24809;-62
2023/04/20 09:35:46;;;;;;;;;5.75;5.00;;;;;;;;117877;1183;25998;-62
2023/04/20 09:38:16;;;;;;;;;7.00;5.00;;;;;;;;117863;1181;24767;-63
2023/04/20 09:40:44;;;;;;;;;8.75;7.00;;;;;;;;117839;1177;24963;-63
2023/04/20 09:43:17;;;;;;;;;3.50;3.50;;;;;;;;117788;1184;25571;-59
2023/04/20 09:45:46;;;;;;;;;4.33;4.00;;;;;;;;117782;1190;25593;-61
2023/04/20 09:48:19;;;;;;;;;7.00;7.00;;;;;;;;117929;1186;25492;-61
2023/04/20 09:50:48;;;;;;;;;6.00;6.00;;;;;;;;117898;1179;24712;-61
2023/04/20 09:53:19;;;;;;;;;8.00;5.00;;;;;;;;117889;1190;25038;-60
2023/04/20 09:55:50;;;;;;;;;3.75;3.50;;;;;;;;117874;1182;25246;-62
2023/04/20 09:58:20;;;;;;;;;6.00;5.00;;;;;;;;117832;1177;25035;-61
2023/04/20 10:00:49;;;;;;;;;9.00;5.00;;;;;;;;117865;1179;25590;-61
2023/04/20 10:03:18;;;;;;;;;5.00;4.00;;;;;;;;117904;1180;25494;-61
2023/04/20 10:05:47;;;;;;;;;5.75;3.75;;;;;;;;117865;1178;25629;-60
2023/04/20 10:08:19;;;;;;;;;5.75;5.50;;;;;;;;117880;1190;24874;-59
2023/04/20 10:10:49;;;;;;;;;5.67;4.00;;;;;;;;117912;1179;25252;-61
2023/04/20 10:13:22;;;;;;;;;4.00;4.00;;;;;;;;117829;1177;24986;-61
2023/04/20 10:15:50;;;;;;;;;4.25;4.00;;;;;;;;117820;1177;24943;-62
2023/04/20 10:18:24;;;;;;;;;3.00;3.00;;;;;;;;117862;1190;25489;-61
2023/04/20 10:21:05;;;;;;;;;6.75;4.00;;;;;;;;117887;1186;25431;-62
2023/04/20 10:23:34;;;;;;;;;7.00;5.00;;;;;;;;117931;1183;25226;-61
2023/04/20 10:26:02;;;;;;;;;2.75;2.00;;;;;;;;117879;1177;25186;-60
2023/04/20 10:28:41;;;;;;;;;4.00;4.00;;;;;;;;117837;1179;25314;-62
2023/04/20 10:31:15;;;;;;;;;7.50;5.00;;;;;;;;117834;1179;25080;-61
2023/04/20 10:33:53;;;;;;;;;6.00;3.67;;;;;;;;117853;1178;25646;-61
2023/04/20 10:36:33;;;;;;;;;4.00;4.00;;;;;;;;117876;1184;25489;-61
2023/04/20 10:39:15;;;;;;;;;6.00;6.00;;;;;;;;117849;1177;25410;-61
2023/04/20 10:41:54;;;;;;;;;4.00;3.00;;;;;;;;117771;1177;25710;-61
2023/04/20 10:44:24;;;;;;;;;4.00;4.00;;;;;;;;117877;1177;24762;-59
2023/04/20 10:46:53;;;;;;;;;9.00;7.67;;;;;;;;117878;1190;25318;-59
2023/04/20 10:49:25;;;;;;;;;27.00;25.33;;;;;;;;117885;1177;24721;-61
2023/04/20 10:51:55;;;;;;;;;41.00;36.00;;;;;;;;117952;1178;24848;-60
2023/04/20 10:54:23;;;;;;;;;48.00;40.00;;;;;;;;117877;1177;24949;-60
2023/04/20 10:56:52;;;;;;;;;49.50;40.00;;;;;;;;117905;1177;25336;-58
2023/04/20 10:59:24;;;;;;;;;52.00;43.00;;;;;;;;117906;1182;25293;-61
2023/04/20 11:01:54;;;;;;;;;22.67;21.33;;;;;;;;117869;1179;25055;-61
2023/04/20 11:04:33;;;;;;;;;25.00;24.33;;;;;;;;117793;1179;25269;-61
2023/04/20 11:07:06;;;;;;;;;15.00;15.00;;;;;;;;117838;1187;25681;-61
2023/04/20 11:09:37;;;;;;;;;30.00;28.50;;;;;;;;117906;1177;25003;-61
2023/04/20 11:12:10;;;;;;;;;31.33;30.00;;;;;;;;117790;1180;25370;-61
2023/04/20 11:15:01;;;;;;;;;29.33;25.67;;;;;;;;117900;1184;25092;-61
2023/04/20 11:17:34;;;;;;;;;28.33;24.33;;;;;;;;117873;1190;25045;-61
2023/04/20 11:20:09;;;;;;;;;24.67;21.67;;;;;;;;117887;1180;24931;-62
2023/04/20 11:22:38;;;;;;;;;23.00;23.00;;;;;;;;117903;1182;25480;-61
2023/04/20 11:25:09;;;;;;;;;22.33;22.33;;;;;;;;117810;1183;25626;-61
2023/04/20 11:27:38;;;;;;;;;32.33;28.00;;;;;;;;117861;1190;24958;-61
2023/04/20 11:30:07;;;;;;;;;27.50;24.50;;;;;;;;117899;1177;25398;-62
2023/04/20 11:32:36;;;;;;;;;23.67;20.67;;;;;;;;117858;1180;25423;-64
2023/04/20 11:35:08;;;;;;;;;27.00;24.00;;;;;;;;117927;1177;24735;-62
2023/04/20 11:37:46;;;;;;;;;23.00;19.00;;;;;;;;117872;1177;25354;-62
2023/04/20 11:40:15;;;;;;;;;22.67;21.33;;;;;;;;117908;1182;25661;-62
2023/04/20 11:42:43;;;;;;;;;25.67;21.33;;;;;;;;117807;1177;25551;-63
2023/04/20 11:45:12;;;;;;;;;24.00;21.00;;;;;;;;117807;1183;25518;-66
2023/04/20 11:47:40;;;;;;;;;24.75;23.25;;;;;;;;117863;1180;24950;-65
2023/04/20 11:50:10;;;;;;;;;23.50;23.50;;;;;;;;117915;1177;24874;-64
2023/04/20 11:52:38;;;;;;;;;23.50;21.50;;;;;;;;117897;1190;25526;-63
2023/04/20 11:55:07;;;;;;;;;24.00;22.00;;;;;;;;117876;1178;25662;-65
2023/04/20 11:57:35;;;;;;;;;20.67;18.00;;;;;;;;117924;1177;25608;-65
2023/04/20 12:00:06;;;;;;;;;20.33;18.33;;;;;;;;117814;1177;25957;-63
2023/04/20 12:02:34;;;;;;;;;20.00;19.00;;;;;;;;117873;1177;25131;-63
2023/04/20 12:05:03;;;;;;;;;21.00;17.50;;;;;;;;117863;1177;25364;-63
2023/04/20 12:07:32;;;;;;;;;18.25;16.00;;;;;;;;117881;1183;24924;-67
2023/04/20 12:10:00;;;;;;;;;20.00;18.50;;;;;;;;117861;1179;25319;-62
2023/04/20 12:12:29;;;;;;;;;21.00;19.00;;;;;;;;117827;1190;25198;-61
2023/04/20 12:14:57;;;;;;;;;21.00;17.50;;;;;;;;117819;1190;24839;-60
2023/04/20 12:17:25;;;;;;;;;19.67;18.67;;;;;;;;117869;1177;25561;-60
2023/04/20 12:19:56;;;;;;;;;22.00;21.50;;;;;;;;117915;1177;25338;-60
2023/04/20 12:22:25;;;;;;;;;21.00;19.33;;;;;;;;117797;1178;25715;-61
2023/04/20 12:24:53;;;;;;;;;22.33;20.00;;;;;;;;117817;1177;25259;-60
2023/04/20 12:27:22;;;;;;;;;24.33;18.33;;;;;;;;117855;1186;25842;-61
2023/04/20 12:29:50;;;;;;;;;18.50;18.50;;;;;;;;117921;1191;24944;-58
2023/04/20 12:32:19;;;;;;;;;18.75;18.75;;;;;;;;117914;1180;24961;-58
2023/04/20 12:34:47;;;;;;;;;16.75;16.75;;;;;;;;117805;1178;25055;-59
2023/04/20 12:37:15;;;;;;;;;16.75;16.75;;;;;;;;117899;1177;25451;-66
2023/04/20 12:39:44;;;;;;;;;18.50;17.50;;;;;;;;117908;1177;25579;-68
2023/04/20 12:42:13;;;;;;;;;23.67;18.00;;;;;;;;117802;1182;24909;-65
2023/04/20 12:44:41;;;;;;;;;21.00;18.00;;;;;;;;117951;1177;25084;-59
2023/04/20 12:47:12;;;;;;;;;20.75;19.75;;;;;;;;117896;1177;24963;-60
2023/04/20 12:49:40;;;;;;;;;16.50;16.50;;;;;;;;117955;1177;25727;-59
2023/04/20 12:52:09;;;;;;;;;17.00;16.67;;;;;;;;117941;1180;25364;-60
2023/04/20 12:54:38;;;;;;;;;16.00;15.00;;;;;;;;117865;1177;25674;-59
2023/04/20 12:57:09;;;;;;;;;18.00;16.00;;;;;;;;117848;1177;25098;-60
2023/04/20 12:59:38;;;;;;;;;17.00;17.00;;;;;;;;117938;1183;26242;-62
2023/04/20 13:02:06;;;;;;;;;18.75;18.75;;;;;;;;117825;1178;25003;-61
2023/04/20 13:04:35;;;;;;;;;14.00;14.00;;;;;;;;117823;1177;25567;-59
2023/04/20 13:07:04;;;;;;;;;19.67;15.67;;;;;;;;117927;1177;24719;-58
2023/04/20 13:09:33;;;;;;;;;18.00;16.00;;;;;;;;117940;1182;25293;-58
2023/04/20 13:12:02;;;;;;;;;19.00;16.67;;;;;;;;117867;1190;25455;-59
2023/04/20 13:14:31;;;;;;;;;19.50;19.00;;;;;;;;117946;1177;25291;-59
2023/04/20 13:17:00;;;;;;;;;19.67;16.00;;;;;;;;117934;1186;25271;-58
2023/04/20 13:19:29;;;;;;;;;17.00;16.00;;;;;;;;117907;1177;24831;-59
2023/04/20 13:21:58;;;;;;;;;24.75;17.25;;;;;;;;117805;1177;25435;-58
2023/04/20 13:24:26;;;;;;;;;17.75;15.25;;;;;;;;117887;1180;25317;-58
2023/04/20 13:26:55;;;;;;;;;18.50;15.00;;;;;;;;117886;1191;25368;-58
2023/04/20 13:29:25;;;;;;;;;18.50;15.50;;;;;;;;117922;1177;24739;-59
2023/04/20 13:31:53;;;;;;;;;16.00;16.00;;;;;;;;117917;1177;26005;-58
2023/04/20 13:34:21;;;;;;;;;18.00;15.33;;;;;;;;117938;1177;25222;-58
2023/04/20 13:36:50;;;;;;;;;18.50;14.00;;;;;;;;117889;1177;25025;-58
2023/04/20 13:39:20;;;;;;;;;17.75;17.50;;;;;;;;117881;1184;25474;-60
2023/04/20 13:41:49;;;;;;;;;16.00;15.00;;;;;;;;117834;1186;25360;-59
2023/04/20 13:44:17;;;;;;;;;16.00;14.00;;;;;;;;117945;1181;24884;-60
2023/04/20 13:46:47;;;;;;;;;16.00;15.67;;;;;;;;117849;1186;25262;-59
2023/04/20 13:49:15;;;;;;;;;12.50;12.50;;;;;;;;117858;1177;25157;-56
2023/04/20 13:51:44;;;;;;;;;16.00;15.00;;;;;;;;117862;1190;25565;-59
2023/04/20 13:54:12;;;;;;;;;13.33;13.33;;;;;;;;117840;1177;25630;-57
2023/04/20 13:56:41;;;;;;;;;15.75;14.25;;;;;;;;117891;1177;25192;-60
2023/04/20 13:59:09;;;;;;;;;14.33;12.67;;;;;;;;117907;1177;26439;-59
2023/04/20 14:01:38;;;;;;;;;16.00;16.00;;;;;;;;117916;1177;25075;-60
2023/04/20 14:04:08;;;;;;;;;17.00;16.50;;;;;;;;117870;1178;25293;-60
2023/04/20 14:06:37;;;;;;;;;14.67;13.67;;;;;;;;117917;1177;25606;-58
2023/04/20 14:09:06;;;;;;;;;12.67;11.33;;;;;;;;117906;1181;24720;-59
2023/04/20 14:11:34;;;;;;;;;13.00;13.00;;;;;;;;117850;1187;24712;-59
2023/04/20 14:14:02;;;;;;;;;18.00;14.00;;;;;;;;117862;1179;24975;-58
2023/04/20 14:16:31;;;;;;;;;15.75;14.25;;;;;;;;117826;1177;25072;-59
2023/04/20 14:18:59;;;;;;;;;14.00;12.50;;;;;;;;117908;1190;25283;-60
2023/04/20 14:21:28;;;;;;;;;15.00;13.25;;;;;;;;117904;1177;25536;-59
2023/04/20 14:23:56;;;;;;;;;12.33;10.33;;;;;;;;117916;1177;25399;-59
2023/04/20 14:26:26;;;;;;;;;14.50;13.00;;;;;;;;117892;1177;25333;-59
2023/04/20 14:28:54;;;;;;;;;11.00;9.33;;;;;;;;117927;1177;24804;-59
2023/04/20 14:31:23;;;;;;;;;12.67;10.33;;;;;;;;117878;1177;25558;-59
2023/04/20 14:33:51;;;;;;;;;12.33;12.00;;;;;;;;117848;1177;25288;-59